Time;durP1;ratioP1;P1;durP2;ratioP2;P2;SDS_P1;SDS_P2;PMS_P1;PMS_P2;Temp;Humidity;BMP_temperature;BMP_pressure;BME280_temperature;BME280_humidity;BME280_pressure;Samples;Min_cycle;Max_cycle;Signal;HPM_P1;HPM_P2
2021/05/23 00:00:31;;;;;;;15.93;10.73;;;11.10;91.30;;;;;;4997065;28;20026;-82
2021/05/23 00:02:59;;;;;;;19.85;10.93;;;11.10;91.20;;;;;;4999902;28;20038;-82
2021/05/23 00:05:28;;;;;;;21.85;9.52;;;11.10;91.10;;;;;;4996409;28;20062;-79
2021/05/23 00:07:59;;;;;;;23.08;10.60;;;11.10;91.00;;;;;;4985670;28;20026;-79
2021/05/23 00:10:26;;;;;;;18.65;9.98;;;11.10;91.20;;;;;;4976739;28;20034;-81
2021/05/23 00:12:54;;;;;;;17.60;9.23;;;11.10;90.90;;;;;;4975739;28;20053;-80
2021/05/23 00:15:36;;;;;;;16.75;9.52;;;11.10;90.90;;;;;;4976317;28;20022;-80
2021/05/23 00:18:03;;;;;;;24.60;10.93;;;11.10;90.80;;;;;;4976301;28;20023;-80
2021/05/23 00:20:28;;;;;;;17.92;9.95;;;11.10;90.90;;;;;;4979185;28;20043;-79
2021/05/23 00:22:54;;;;;;;18.90;9.85;;;11.10;90.80;;;;;;4980520;28;20394;-81
2021/05/23 00:25:22;;;;;;;22.65;10.82;;;11.10;90.90;;;;;;4997244;28;20451;-80
2021/05/23 00:27:48;;;;;;;22.88;11.05;;;11.10;91.00;;;;;;4978926;28;20097;-81
2021/05/23 00:30:15;;;;;;;28.65;11.85;;;11.00;91.10;;;;;;4979702;28;20032;-81
2021/05/23 00:32:42;;;;;;;24.15;10.77;;;11.00;91.10;;;;;;4978145;28;20089;-79
2021/05/23 00:35:08;;;;;;;17.67;10.63;;;11.10;91.20;;;;;;4994078;28;20054;-79
2021/05/23 00:37:34;;;;;;;20.10;11.25;;;11.00;91.10;;;;;;4976877;28;20117;-79
2021/05/23 00:40:00;;;;;;;26.00;13.35;;;11.00;91.50;;;;;;4976325;28;20437;-79
2021/05/23 00:42:26;;;;;;;24.25;11.68;;;11.00;91.40;;;;;;4976910;28;20031;-80
2021/05/23 00:44:52;;;;;;;23.25;12.13;;;11.00;91.30;;;;;;4976909;28;20455;-80
2021/05/23 00:47:18;;;;;;;24.35;13.18;;;11.00;91.30;;;;;;4977271;28;20030;-79
2021/05/23 00:49:44;;;;;;;19.80;12.20;;;11.00;91.60;;;;;;4976750;28;20023;-80
2021/05/23 00:52:10;;;;;;;23.58;13.50;;;11.00;91.30;;;;;;4976511;28;20505;-79
2021/05/23 00:54:35;;;;;;;28.85;13.15;;;10.90;91.20;;;;;;4978296;28;20019;-79
2021/05/23 00:57:02;;;;;;;25.30;13.05;;;10.90;91.40;;;;;;5010133;28;20053;-80
2021/05/23 00:59:28;;;;;;;21.80;13.88;;;10.90;91.40;;;;;;4999598;28;20038;-80
2021/05/23 01:01:56;;;;;;;26.85;14.68;;;10.80;91.40;;;;;;4981282;28;20078;-80
2021/05/23 01:04:22;;;;;;;23.55;12.88;;;10.90;91.40;;;;;;4981271;28;20094;-81
2021/05/23 01:06:49;;;;;;;24.88;13.13;;;10.90;91.40;;;;;;4981352;28;20128;-81
2021/05/23 01:09:15;;;;;;;22.65;12.73;;;10.80;91.40;;;;;;4981258;28;20026;-80
2021/05/23 01:11:40;;;;;;;20.33;12.52;;;10.90;91.50;;;;;;4981077;28;20547;-81
2021/05/23 01:14:47;;;;;;;22.67;12.00;;;10.90;91.50;;;;;;4998166;28;20023;-80
2021/05/23 01:17:14;;;;;;;23.92;11.63;;;10.90;91.40;;;;;;4996509;28;20037;-78
2021/05/23 01:20:15;;;;;;;21.00;12.95;;;10.80;91.30;;;;;;4991917;28;20032;-81
2021/05/23 01:22:58;;;;;;;21.70;13.02;;;10.80;91.30;;;;;;4981253;28;20489;-80
2021/05/23 01:25:25;;;;;;;29.25;13.98;;;10.80;91.30;;;;;;4980315;28;20053;-80
2021/05/23 01:27:52;;;;;;;22.20;13.80;;;10.80;91.40;;;;;;4979602;28;20114;-80
2021/05/23 01:30:23;;;;;;;21.65;12.25;;;10.80;91.50;;;;;;4979775;28;20089;-78
2021/05/23 01:32:54;;;;;;;26.00;12.82;;;10.80;91.50;;;;;;4980373;28;20014;-80
2021/05/23 01:35:31;;;;;;;27.77;13.10;;;10.80;91.50;;;;;;4980988;28;20030;-80
2021/05/23 01:38:00;;;;;;;23.88;12.90;;;10.70;91.50;;;;;;4984685;28;20421;-80
2021/05/23 01:40:28;;;;;;;27.10;12.70;;;10.80;91.50;;;;;;4984676;28;20482;-80
2021/05/23 01:42:56;;;;;;;25.92;13.27;;;10.80;91.50;;;;;;4990343;28;20042;-79
2021/05/23 01:45:23;;;;;;;25.33;13.23;;;10.80;91.60;;;;;;4982412;28;20026;-81
2021/05/23 01:47:52;;;;;;;20.42;12.15;;;10.80;91.70;;;;;;4979870;28;20037;-81
2021/05/23 01:50:18;;;;;;;25.65;15.32;;;10.80;91.80;;;;;;4979698;28;20038;-82
2021/05/23 01:52:54;;;;;;;28.00;14.38;;;10.80;91.80;;;;;;4980498;28;20030;-81
2021/05/23 01:55:20;;;;;;;19.33;12.00;;;10.80;91.80;;;;;;5002621;28;20014;-80
2021/05/23 01:57:46;;;;;;;27.50;11.63;;;10.80;91.70;;;;;;4995185;28;20018;-79
2021/05/23 02:00:14;;;;;;;19.73;12.23;;;10.70;91.60;;;;;;5002108;28;20042;-81
2021/05/23 02:02:40;;;;;;;24.40;12.40;;;10.70;91.60;;;;;;5012345;28;20018;-79
2021/05/23 02:05:07;;;;;;;22.42;12.80;;;10.70;91.60;;;;;;4984291;28;20022;-80
2021/05/23 02:07:33;;;;;;;26.13;12.95;;;10.70;91.70;;;;;;4982013;28;20110;-82
2021/05/23 02:09:58;;;;;;;18.75;11.07;;;10.70;91.80;;;;;;4982045;28;20121;-83
2021/05/23 02:12:25;;;;;;;21.95;12.35;;;10.70;91.70;;;;;;4981302;28;20057;-80
2021/05/23 02:14:51;;;;;;;21.42;12.10;;;10.60;91.60;;;;;;4979753;28;20090;-81
2021/05/23 02:17:16;;;;;;;22.45;12.55;;;10.60;91.50;;;;;;4979351;28;20065;-81
2021/05/23 02:19:49;;;;;;;21.23;12.30;;;10.60;91.50;;;;;;4979116;28;20030;-80
2021/05/23 02:22:15;;;;;;;26.35;12.35;;;10.50;91.90;;;;;;4978530;28;20101;-81
2021/05/23 02:24:43;;;;;;;21.50;11.60;;;10.60;91.70;;;;;;4979035;28;20054;-82
2021/05/23 02:27:12;;;;;;;23.98;13.05;;;10.50;91.70;;;;;;4995588;28;20026;-78
2021/05/23 02:29:38;;;;;;;21.48;12.63;;;10.60;91.80;;;;;;4978008;28;20045;-78
2021/05/23 02:32:08;;;;;;;26.02;12.38;;;10.50;91.90;;;;;;4977758;28;20026;-78
2021/05/23 02:34:44;;;;;;;25.13;12.40;;;10.60;91.90;;;;;;4977975;28;20024;-79
2021/05/23 02:37:12;;;;;;;18.25;12.25;;;10.60;91.90;;;;;;4977700;28;20026;-78
2021/05/23 02:39:38;;;;;;;24.27;13.88;;;10.60;92.00;;;;;;4977533;28;20180;-80
2021/05/23 02:42:03;;;;;;;25.23;12.85;;;10.60;91.90;;;;;;4977584;28;20088;-78
2021/05/23 02:44:32;;;;;;;22.27;12.52;;;10.60;91.90;;;;;;4978087;28;20036;-80
2021/05/23 02:46:58;;;;;;;22.20;11.85;;;10.60;91.90;;;;;;4978010;28;20109;-79
2021/05/23 02:49:23;;;;;;;24.95;12.88;;;10.50;91.90;;;;;;4995521;28;20072;-78
2021/05/23 02:51:49;;;;;;;23.90;12.52;;;10.50;91.90;;;;;;4995599;28;20105;-78
2021/05/23 02:54:15;;;;;;;23.40;13.40;;;10.50;92.00;;;;;;4979807;28;20514;-79
2021/05/23 02:56:40;;;;;;;22.42;12.90;;;10.50;91.90;;;;;;4979541;28;20049;-80
2021/05/23 02:59:06;;;;;;;23.70;13.25;;;10.60;92.00;;;;;;4978457;28;20485;-81
2021/05/23 03:01:31;;;;;;;24.73;13.88;;;10.50;92.10;;;;;;4995493;28;20059;-80
2021/05/23 03:03:57;;;;;;;25.42;14.52;;;10.50;91.90;;;;;;4978851;28;20454;-79
2021/05/23 03:06:22;;;;;;;22.55;13.05;;;10.50;91.90;;;;;;4979627;28;20383;-80
2021/05/23 03:08:48;;;;;;;25.90;14.02;;;10.50;92.00;;;;;;4995378;28;20026;-81
2021/05/23 03:11:14;;;;;;;27.77;15.07;;;10.50;92.00;;;;;;4995651;28;20034;-82
2021/05/23 03:13:39;;;;;;;23.90;14.80;;;10.40;92.00;;;;;;4979003;28;20023;-82
2021/05/23 03:16:05;;;;;;;25.92;16.42;;;10.40;92.00;;;;;;4978487;28;20097;-80
2021/05/23 03:18:31;;;;;;;30.83;16.35;;;10.40;92.00;;;;;;4984872;28;20031;-80
2021/05/23 03:20:56;;;;;;;25.90;16.67;;;10.40;92.10;;;;;;4985243;28;20026;-78
2021/05/23 03:23:22;;;;;;;23.45;16.02;;;10.40;92.00;;;;;;4996330;28;20245;-81
2021/05/23 03:25:51;;;;;;;28.27;16.70;;;10.40;92.10;;;;;;4979860;28;20121;-81
2021/05/23 03:28:17;;;;;;;25.65;16.50;;;10.40;92.20;;;;;;4978584;28;20026;-80
2021/05/23 03:30:43;;;;;;;29.75;18.33;;;10.30;92.20;;;;;;4978062;28;20036;-81
2021/05/23 03:33:10;;;;;;;26.73;18.35;;;10.40;92.20;;;;;;4979934;28;20062;-80
2021/05/23 03:35:36;;;;;;;28.23;17.52;;;10.40;92.30;;;;;;4992337;28;20015;-81
2021/05/23 03:38:03;;;;;;;32.17;17.60;;;10.40;92.30;;;;;;4991706;28;20026;-80
2021/05/23 03:40:36;;;;;;;28.30;16.27;;;10.40;92.30;;;;;;4979290;28;20034;-78
2021/05/23 03:43:02;;;;;;;29.63;17.42;;;10.40;92.20;;;;;;4977760;28;20022;-80
2021/05/23 03:45:27;;;;;;;28.23;17.88;;;10.50;92.30;;;;;;4977980;28;20026;-80
2021/05/23 03:47:53;;;;;;;28.38;17.45;;;10.50;92.30;;;;;;4976883;28;20053;-81
2021/05/23 03:50:21;;;;;;;27.65;17.85;;;10.40;92.20;;;;;;4978922;28;20038;-81
2021/05/23 03:52:48;;;;;;;31.58;20.20;;;10.50;92.30;;;;;;5000478;28;20007;-80
2021/05/23 03:55:14;;;;;;;31.73;18.38;;;10.40;92.20;;;;;;5014460;28;20026;-80
2021/05/23 03:57:39;;;;;;;31.63;19.52;;;10.50;92.30;;;;;;5000300;28;20041;-80
2021/05/23 04:00:07;;;;;;;34.50;20.85;;;10.50;92.40;;;;;;4991963;28;20046;-79
2021/05/23 04:02:33;;;;;;;37.42;21.40;;;10.50;92.40;;;;;;4977348;28;20045;-79
2021/05/23 04:04:59;;;;;;;34.63;20.20;;;10.60;92.40;;;;;;4978680;28;20470;-80
2021/05/23 04:07:26;;;;;;;34.35;21.17;;;10.60;92.50;;;;;;4997553;28;20125;-81
2021/05/23 04:09:53;;;;;;;34.97;21.02;;;10.60;92.40;;;;;;4980954;28;20486;-81
2021/05/23 04:12:26;;;;;;;33.13;20.58;;;10.70;92.40;;;;;;4980119;28;20022;-81
2021/05/23 04:14:52;;;;;;;34.30;21.92;;;10.70;92.30;;;;;;4979873;28;20029;-81
2021/05/23 04:17:17;;;;;;;32.75;21.08;;;10.70;92.40;;;;;;4977726;28;20022;-81
2021/05/23 04:19:43;;;;;;;34.25;22.60;;;10.80;92.30;;;;;;4977272;28;20480;-82
2021/05/23 04:22:10;;;;;;;35.80;23.25;;;10.70;92.40;;;;;;4994831;28;20030;-82
2021/05/23 04:24:39;;;;;;;36.60;23.30;;;10.70;92.30;;;;;;4977943;28;20026;-82
2021/05/23 04:27:05;;;;;;;34.45;23.02;;;10.80;92.40;;;;;;4976790;28;20062;-81
2021/05/23 04:29:35;;;;;;;35.65;23.45;;;10.80;92.50;;;;;;4977245;28;20539;-81
2021/05/23 04:32:02;;;;;;;37.70;25.10;;;10.80;92.70;;;;;;4979151;28;20046;-81
2021/05/23 04:34:29;;;;;;;38.85;25.17;;;10.80;92.50;;;;;;4982107;28;20117;-82
2021/05/23 04:36:55;;;;;;;35.83;24.60;;;10.80;92.50;;;;;;4993193;28;20037;-80
2021/05/23 04:39:21;;;;;;;38.90;25.30;;;10.80;92.50;;;;;;4980765;28;20053;-81
2021/05/23 04:41:46;;;;;;;38.72;25.73;;;10.80;92.60;;;;;;4980901;28;20213;-80
2021/05/23 04:44:12;;;;;;;40.72;25.67;;;10.80;92.60;;;;;;4980357;28;20284;-80
2021/05/23 04:46:37;;;;;;;43.08;27.27;;;10.80;92.70;;;;;;4980016;28;20458;-82
2021/05/23 04:49:03;;;;;;;40.10;26.20;;;10.90;92.80;;;;;;4980325;28;20026;-81
2021/05/23 04:51:30;;;;;;;41.75;27.30;;;10.90;92.80;;;;;;4980028;28;20030;-81
2021/05/23 04:53:55;;;;;;;43.10;29.55;;;10.90;92.90;;;;;;4997598;28;20026;-81
2021/05/23 04:56:21;;;;;;;40.10;26.48;;;11.00;92.90;;;;;;4979935;28;20029;-81
2021/05/23 04:58:48;;;;;;;48.67;31.70;;;11.00;92.80;;;;;;4980042;28;20426;-79
2021/05/23 05:01:13;;;;;;;48.40;32.05;;;11.00;92.90;;;;;;4980307;28;20133;-81
2021/05/23 05:03:39;;;;;;;48.58;31.83;;;11.10;92.90;;;;;;4981702;28;20109;-80
2021/05/23 05:06:05;;;;;;;51.97;32.97;;;11.10;92.80;;;;;;4998027;28;20042;-80
2021/05/23 05:08:31;;;;;;;49.25;33.28;;;11.20;92.90;;;;;;4980520;28;20402;-82
2021/05/23 05:10:56;;;;;;;57.80;37.38;;;11.20;92.60;;;;;;4981747;28;20117;-81
2021/05/23 05:13:22;;;;;;;55.25;37.25;;;11.20;92.70;;;;;;4981494;28;20061;-81
2021/05/23 05:15:47;;;;;;;47.75;31.02;;;11.20;92.90;;;;;;4982470;28;20465;-82
2021/05/23 05:18:13;;;;;;;52.50;35.15;;;11.30;92.60;;;;;;4981915;28;20030;-81
2021/05/23 05:20:39;;;;;;;39.63;26.45;;;11.20;92.50;;;;;;4982852;28;20359;-80
2021/05/23 05:23:06;;;;;;;44.92;30.92;;;11.20;92.50;;;;;;4983892;28;20077;-79
2021/05/23 05:25:32;;;;;;;51.25;34.22;;;11.10;92.30;;;;;;4981526;28;20052;-81
2021/05/23 05:27:58;;;;;;;46.10;29.98;;;11.10;92.50;;;;;;4992455;28;20026;-79
2021/05/23 05:30:24;;;;;;;56.63;37.35;;;11.10;92.40;;;;;;5002430;28;20014;-81
2021/05/23 05:32:50;;;;;;;48.58;33.55;;;11.10;92.40;;;;;;4991596;28;20033;-80
2021/05/23 05:35:15;;;;;;;55.45;37.42;;;11.10;92.50;;;;;;4980564;28;20366;-81
2021/05/23 05:37:41;;;;;;;70.55;42.30;;;11.20;92.20;;;;;;4978610;28;20118;-81
2021/05/23 05:40:07;;;;;;;51.67;34.38;;;11.20;92.60;;;;;;4978981;28;20029;-78
2021/05/23 05:42:33;;;;;;;61.05;39.78;;;11.20;92.60;;;;;;4979250;28;20029;-80
2021/05/23 05:44:59;;;;;;;55.42;38.47;;;11.20;92.60;;;;;;4982514;28;20023;-80
2021/05/23 05:47:26;;;;;;;54.08;37.10;;;11.30;92.10;;;;;;4989578;28;20121;-78
2021/05/23 05:49:52;;;;;;;59.50;42.05;;;11.30;92.20;;;;;;4995508;28;20030;-80
2021/05/23 05:52:18;;;;;;;60.85;40.60;;;11.30;92.70;;;;;;5000112;28;20076;-81
2021/05/23 05:54:43;;;;;;;51.60;35.75;;;11.40;92.40;;;;;;5002740;28;20007;-81
2021/05/23 05:57:09;;;;;;;51.78;33.88;;;11.40;92.00;;;;;;4997271;28;20026;-80
2021/05/23 05:59:35;;;;;;;56.83;38.55;;;11.40;91.90;;;;;;4982523;28;20037;-81
2021/05/23 06:02:00;;;;;;;40.72;29.17;;;11.40;92.00;;;;;;4997324;28;20022;-80
2021/05/23 06:04:26;;;;;;;58.80;37.13;;;11.40;92.00;;;;;;4979381;28;20026;-81
2021/05/23 06:06:52;;;;;;;42.80;29.38;;;11.40;91.70;;;;;;4997245;28;20058;-81
2021/05/23 06:09:17;;;;;;;51.30;36.58;;;11.40;91.70;;;;;;4979586;28;20116;-81
2021/05/23 06:11:43;;;;;;;46.30;32.15;;;11.50;91.80;;;;;;4981669;28;20031;-81
2021/05/23 06:14:08;;;;;;;51.65;36.70;;;11.50;91.30;;;;;;4979850;28;20351;-81
2021/05/23 06:16:34;;;;;;;51.15;36.53;;;11.50;91.60;;;;;;4982274;28;20037;-80
2021/05/23 06:19:00;;;;;;;48.20;34.47;;;11.50;91.60;;;;;;4979816;28;20477;-80
2021/05/23 06:21:25;;;;;;;40.35;31.40;;;11.50;91.20;;;;;;4978872;28;20117;-81
2021/05/23 06:23:51;;;;;;;55.47;34.13;;;11.50;91.40;;;;;;4979130;28;20023;-80
2021/05/23 06:26:16;;;;;;;50.85;34.67;;;11.40;91.10;;;;;;4979327;28;20026;-80
2021/05/23 06:28:42;;;;;;;46.67;33.70;;;11.40;91.70;;;;;;4979240;28;20027;-79
2021/05/23 06:31:08;;;;;;;41.80;29.90;;;11.40;91.40;;;;;;4979667;28;20026;-79
2021/05/23 06:33:34;;;;;;;46.45;31.27;;;11.40;91.00;;;;;;4980284;28;20023;-79
2021/05/23 06:36:00;;;;;;;51.53;31.42;;;11.30;91.10;;;;;;4979729;28;20488;-80
2021/05/23 06:38:26;;;;;;;33.50;23.60;;;11.30;91.30;;;;;;4978099;28;20554;-79
2021/05/23 06:40:51;;;;;;;50.00;28.48;;;11.30;91.30;;;;;;4978643;28;20034;-80
2021/05/23 06:43:20;;;;;;;41.95;24.52;;;11.20;91.40;;;;;;4978815;28;20041;-79
2021/05/23 06:45:49;;;;;;;42.53;25.45;;;11.20;91.40;;;;;;4979337;28;20027;-79
2021/05/23 06:48:18;;;;;;;36.22;24.55;;;11.20;91.60;;;;;;4978431;28;20443;-81
2021/05/23 06:50:47;;;;;;;34.42;22.42;;;11.20;91.60;;;;;;4978688;28;20034;-80
2021/05/23 06:53:15;;;;;;;31.67;20.63;;;11.10;91.60;;;;;;4978282;28;20022;-81
2021/05/23 06:55:46;;;;;;;30.52;19.88;;;11.10;91.40;;;;;;4978568;28;20070;-82
2021/05/23 06:58:12;;;;;;;31.65;15.52;;;11.10;91.20;;;;;;4980866;28;20022;-82
2021/05/23 07:00:44;;;;;;;29.63;18.08;;;11.10;91.00;;;;;;4980168;28;20036;-80
2021/05/23 07:03:17;;;;;;;30.63;19.98;;;11.10;91.40;;;;;;4979647;28;20030;-80
2021/05/23 07:05:42;;;;;;;32.63;17.17;;;11.10;91.50;;;;;;4979138;28;20038;-81
2021/05/23 07:08:08;;;;;;;31.95;19.35;;;11.10;91.30;;;;;;4979319;28;20390;-79
2021/05/23 07:10:33;;;;;;;29.75;17.15;;;11.10;91.40;;;;;;4979746;28;20022;-79
2021/05/23 07:12:59;;;;;;;25.48;15.93;;;11.10;91.20;;;;;;4979122;28;20024;-79
2021/05/23 07:15:25;;;;;;;25.65;14.98;;;11.10;91.00;;;;;;4978049;28;20532;-82
2021/05/23 07:17:53;;;;;;;35.42;20.23;;;11.10;90.90;;;;;;4978618;28;20056;-80
2021/05/23 07:20:19;;;;;;;22.63;13.60;;;11.20;91.00;;;;;;4978987;28;20026;-81
2021/05/23 07:22:44;;;;;;;36.40;17.90;;;11.10;90.80;;;;;;4984225;28;20613;-80
2021/05/23 07:25:13;;;;;;;26.75;16.98;;;11.10;90.90;;;;;;4986877;28;20027;-80
2021/05/23 07:27:50;;;;;;;26.23;16.55;;;11.10;91.00;;;;;;4979925;28;20073;-79
2021/05/23 07:30:16;;;;;;;33.88;16.42;;;11.20;91.20;;;;;;4978411;28;20109;-78
2021/05/23 07:32:42;;;;;;;25.20;15.38;;;11.10;91.10;;;;;;4983601;28;20053;-81
2021/05/23 07:35:08;;;;;;;27.95;14.18;;;11.10;90.60;;;;;;4997574;28;20026;-81
2021/05/23 07:37:39;;;;;;;25.25;13.77;;;11.10;90.10;;;;;;4981712;28;20057;-82
2021/05/23 07:40:06;;;;;;;24.42;15.02;;;11.10;90.20;;;;;;4979083;28;20058;-83
2021/05/23 07:42:34;;;;;;;21.65;13.85;;;11.10;90.40;;;;;;4979305;28;20425;-81
2021/05/23 07:45:03;;;;;;;27.60;13.93;;;11.10;90.10;;;;;;4978151;28;20429;-80
2021/05/23 07:47:29;;;;;;;27.10;12.98;;;11.20;90.00;;;;;;4995493;28;20026;-80
2021/05/23 07:49:54;;;;;;;14.10;9.23;;;11.30;89.90;;;;;;4995382;28;20031;-80
2021/05/23 07:52:29;;;;;;;20.17;12.13;;;11.20;89.30;;;;;;4976673;28;20209;-82
2021/05/23 07:54:55;;;;;;;22.40;11.68;;;11.30;88.60;;;;;;4978481;28;20423;-78
2021/05/23 07:57:23;;;;;;;17.50;10.23;;;11.30;89.00;;;;;;4977479;28;20029;-80
2021/05/23 07:59:49;;;;;;;18.10;10.43;;;11.30;88.90;;;;;;4972713;28;20467;-81
2021/05/23 08:02:15;;;;;;;14.60;9.32;;;11.30;88.50;;;;;;4964937;28;20085;-78
2021/05/23 08:04:40;;;;;;;26.25;10.70;;;11.20;88.70;;;;;;4965550;28;20026;-80
2021/05/23 08:07:06;;;;;;;18.45;10.27;;;11.20;88.60;;;;;;4965954;28;20046;-79
2021/05/23 08:09:32;;;;;;;26.05;10.25;;;11.20;88.80;;;;;;4966395;28;20035;-78
2021/05/23 08:11:57;;;;;;;19.33;10.25;;;11.20;89.30;;;;;;4961089;28;20030;-80
2021/05/23 08:14:23;;;;;;;17.75;10.25;;;11.20;89.10;;;;;;4979568;28;20057;-81
2021/05/23 08:16:49;;;;;;;27.20;9.45;;;11.30;89.20;;;;;;5008492;28;20033;-80
2021/05/23 08:19:15;;;;;;;17.58;8.48;;;11.30;89.30;;;;;;4958395;28;20041;-81
2021/05/23 08:21:42;;;;;;;23.00;10.35;;;11.40;89.10;;;;;;4959133;28;20034;-82
2021/05/23 08:24:09;;;;;;;21.15;10.35;;;11.40;88.90;;;;;;4959397;28;20463;-81
2021/05/23 08:26:35;;;;;;;18.55;9.45;;;11.50;88.40;;;;;;4957784;28;20054;-81
2021/05/23 08:29:01;;;;;;;15.40;10.27;;;11.50;88.00;;;;;;4958506;28;20066;-80
2021/05/23 08:31:38;;;;;;;22.05;11.55;;;11.50;87.90;;;;;;4962725;28;20057;-80
2021/05/23 08:34:05;;;;;;;20.17;10.70;;;11.50;87.80;;;;;;4977030;28;20026;-81
2021/05/23 08:36:34;;;;;;;20.42;9.95;;;11.60;86.20;;;;;;4976102;28;20029;-81
2021/05/23 08:39:00;;;;;;;15.88;9.68;;;11.70;85.30;;;;;;4976712;28;20122;-78
2021/05/23 08:41:25;;;;;;;24.50;10.73;;;11.70;84.80;;;;;;4976212;28;20121;-80
2021/05/23 08:43:54;;;;;;;19.45;9.82;;;11.90;84.00;;;;;;4976201;28;20022;-79
2021/05/23 08:46:21;;;;;;;15.30;9.35;;;12.00;83.40;;;;;;4975979;28;20443;-81
2021/05/23 08:48:50;;;;;;;13.50;7.70;;;12.00;83.50;;;;;;4977119;28;20026;-80
2021/05/23 08:51:16;;;;;;;14.73;7.45;;;12.10;82.70;;;;;;4978584;28;20027;-80
2021/05/23 08:53:43;;;;;;;17.52;7.53;;;12.20;81.30;;;;;;4994647;28;20062;-81
2021/05/23 08:56:09;;;;;;;14.23;7.43;;;12.30;81.70;;;;;;4972007;28;20026;-79
2021/05/23 08:58:35;;;;;;;12.07;7.07;;;12.30;81.20;;;;;;4976980;28;20049;-80
2021/05/23 09:01:25;;;;;;;14.35;5.57;;;12.40;81.70;;;;;;4993605;28;20026;-82
2021/05/23 09:04:03;;;;;;;17.23;7.05;;;12.40;80.70;;;;;;4958526;28;20058;-79
2021/05/23 09:06:30;;;;;;;13.05;4.95;;;12.40;81.10;;;;;;4993050;28;20085;-79
2021/05/23 09:09:00;;;;;;;13.27;5.45;;;12.40;80.90;;;;;;4975957;28;20028;-81
2021/05/23 09:11:26;;;;;;;11.13;3.42;;;12.40;78.90;;;;;;4977060;28;20038;-80
2021/05/23 09:13:53;;;;;;;11.50;4.30;;;12.40;78.80;;;;;;4976983;28;20053;-80
2021/05/23 09:16:20;;;;;;;12.18;3.53;;;12.40;77.10;;;;;;4985462;28;20086;-80
2021/05/23 09:18:56;;;;;;;14.05;4.07;;;12.30;78.30;;;;;;4997585;28;20078;-79
2021/05/23 09:21:30;;;;;;;10.05;3.42;;;12.40;76.80;;;;;;5002801;28;20034;-79
2021/05/23 09:24:04;;;;;;;10.73;3.13;;;12.40;75.70;;;;;;4980158;28;20023;-80
2021/05/23 09:26:38;;;;;;;9.38;3.25;;;12.50;76.90;;;;;;4981885;28;20026;-79
2021/05/23 09:29:10;;;;;;;9.77;2.50;;;12.60;75.40;;;;;;4982814;28;20088;-80
2021/05/23 09:31:36;;;;;;;5.72;2.15;;;12.70;77.40;;;;;;4979199;28;20018;-79
2021/05/23 09:34:02;;;;;;;5.90;1.88;;;12.90;77.90;;;;;;4979783;28;20034;-80
2021/05/23 09:36:28;;;;;;;9.77;2.95;;;13.10;77.50;;;;;;4979359;28;20014;-80
2021/05/23 09:38:59;;;;;;;10.38;2.75;;;13.30;71.10;;;;;;4983989;28;20014;-79
2021/05/23 09:41:28;;;;;;;5.10;1.70;;;13.50;69.70;;;;;;4997586;28;20057;-79
2021/05/23 09:44:16;;;;;;;10.27;2.00;;;13.70;69.10;;;;;;4979379;28;20033;-80
2021/05/23 09:46:59;;;;;;;6.00;1.63;;;13.80;66.00;;;;;;4978640;28;20026;-81
2021/05/23 09:49:25;;;;;;;4.57;1.42;;;13.80;65.20;;;;;;4978490;28;20037;-81
2021/05/23 09:52:01;;;;;;;10.63;1.67;;;13.80;63.00;;;;;;4978848;28;20390;-81
2021/05/23 09:54:29;;;;;;;8.45;2.30;;;14.00;64.20;;;;;;4978484;28;20073;-81
2021/05/23 09:56:56;;;;;;;6.35;1.55;;;14.30;60.40;;;;;;4979154;28;20061;-80
2021/05/23 09:59:26;;;;;;;7.57;1.83;;;14.60;58.80;;;;;;4979503;28;20026;-81
2021/05/23 10:02:03;;;;;;;4.53;1.30;;;14.80;57.40;;;;;;4978963;28;20117;-80
2021/05/23 10:04:29;;;;;;;5.47;1.27;;;15.00;57.20;;;;;;4981566;28;20027;-81
2021/05/23 10:07:04;;;;;;;4.72;1.90;;;15.20;56.70;;;;;;4979241;28;20489;-80
2021/05/23 10:09:30;;;;;;;5.18;1.20;;;15.40;58.40;;;;;;4979503;28;20057;-80
2021/05/23 10:11:57;;;;;;;5.35;1.30;;;15.40;59.40;;;;;;4979608;28;20057;-81
2021/05/23 10:14:23;;;;;;;6.22;1.02;;;15.60;59.30;;;;;;4979584;28;20162;-81
2021/05/23 10:16:52;;;;;;;4.00;1.30;;;15.80;58.50;;;;;;4980243;28;20356;-83
2021/05/23 10:19:30;;;;;;;8.82;2.25;;;15.80;55.80;;;;;;4981220;28;20053;-81
2021/05/23 10:21:58;;;;;;;7.22;2.10;;;15.70;56.60;;;;;;4980712;28;20129;-82
2021/05/23 10:24:32;;;;;;;8.40;2.08;;;15.70;56.90;;;;;;4979454;28;20030;-81
2021/05/23 10:27:01;;;;;;;6.53;2.50;;;15.70;57.50;;;;;;4996555;28;20026;-81
2021/05/23 10:29:28;;;;;;;8.70;2.47;;;15.60;53.80;;;;;;4977248;28;20030;-80
2021/05/23 10:32:09;;;;;;;7.57;2.17;;;15.50;56.70;;;;;;4978136;28;20445;-80
2021/05/23 10:34:43;;;;;;;6.72;2.05;;;15.70;56.80;;;;;;4978060;28;20026;-81
2021/05/23 10:37:16;;;;;;;7.10;1.75;;;15.60;56.90;;;;;;4978552;28;20033;-81
2021/05/23 10:39:51;;;;;;;7.60;2.03;;;15.50;59.30;;;;;;4979212;28;20029;-80
2021/05/23 10:42:18;;;;;;;7.03;2.45;;;15.30;59.80;;;;;;4978009;28;20027;-80
2021/05/23 10:44:49;;;;;;;7.32;2.33;;;15.10;60.10;;;;;;4978067;28;20034;-80
2021/05/23 10:47:20;;;;;;;6.53;1.85;;;14.90;59.10;;;;;;4978645;28;20181;-80
2021/05/23 10:50:02;;;;;;;6.53;1.40;;;14.80;61.20;;;;;;4978914;28;20026;-82
2021/05/23 10:52:33;;;;;;;5.57;1.42;;;14.90;67.90;;;;;;4978049;28;20384;-81
2021/05/23 10:55:02;;;;;;;6.32;1.50;;;15.10;69.20;;;;;;4984360;28;20030;-80
2021/05/23 10:57:43;;;;;;;4.90;1.67;;;15.10;69.60;;;;;;4978029;28;20042;-80
2021/05/23 11:00:19;;;;;;;4.43;1.60;;;15.10;69.50;;;;;;4979026;28;20026;-80
2021/05/23 11:02:48;;;;;;;4.38;1.48;;;15.20;69.60;;;;;;4978643;28;20037;-83
2021/05/23 11:05:13;;;;;;;7.28;2.15;;;15.10;70.90;;;;;;4978951;28;20023;-80
2021/05/23 11:07:39;;;;;;;7.18;2.70;;;15.00;70.80;;;;;;4980539;28;20061;-80
2021/05/23 11:10:20;;;;;;;9.65;2.50;;;14.90;61.00;;;;;;4988670;28;20034;-80
2021/05/23 11:13:15;;;;;;;6.13;2.53;;;14.90;64.30;;;;;;4995058;28;20028;-81
2021/05/23 11:15:44;;;;;;;11.55;2.00;;;15.00;59.60;;;;;;4985519;28;20038;-81
2021/05/23 11:18:13;;;;;;;7.72;2.22;;;15.10;61.60;;;;;;4980476;28;20022;-80
2021/05/23 11:20:39;;;;;;;7.90;2.20;;;15.10;58.40;;;;;;4995492;28;20113;-80
2021/05/23 11:23:07;;;;;;;5.63;1.80;;;15.10;56.90;;;;;;4969494;28;20458;-81
2021/05/23 11:25:34;;;;;;;10.07;2.13;;;15.10;58.30;;;;;;4965719;28;20030;-79
2021/05/23 11:28:06;;;;;;;6.03;1.80;;;15.10;57.30;;;;;;4975267;28;20077;-80
2021/05/23 11:30:35;;;;;;;5.55;1.85;;;15.20;56.00;;;;;;4979026;28;20019;-79
2021/05/23 11:33:13;;;;;;;6.18;1.45;;;15.20;57.60;;;;;;4978396;28;20022;-79
2021/05/23 11:35:40;;;;;;;9.48;2.50;;;15.30;57.20;;;;;;4977628;28;20080;-79
2021/05/23 11:38:06;;;;;;;7.68;1.73;;;15.40;52.80;;;;;;4978771;28;20470;-79
2021/05/23 11:40:43;;;;;;;7.03;2.13;;;15.40;59.60;;;;;;4977656;28;20026;-78
2021/05/23 11:43:20;;;;;;;4.35;1.73;;;15.50;56.30;;;;;;4991174;28;20023;-79
2021/05/23 11:45:52;;;;;;;6.75;1.85;;;15.70;57.00;;;;;;5004665;28;20025;-79
2021/05/23 11:48:28;;;;;;;4.30;1.55;;;16.00;59.00;;;;;;4978028;28;20112;-80
2021/05/23 11:50:54;;;;;;;6.25;2.28;;;16.30;59.90;;;;;;4996182;28;20130;-79
2021/05/23 11:53:19;;;;;;;4.10;1.80;;;16.40;54.30;;;;;;4982044;28;20038;-80
2021/05/23 11:55:51;;;;;;;6.75;2.00;;;16.40;55.60;;;;;;4977015;28;20038;-79
2021/05/23 11:58:18;;;;;;;6.00;1.98;;;16.30;54.30;;;;;;4977799;28;20027;-79
2021/05/23 12:00:45;;;;;;;6.00;1.70;;;16.30;51.00;;;;;;4977662;28;20030;-81
2021/05/23 12:03:11;;;;;;;6.75;2.13;;;16.20;58.60;;;;;;4995639;28;20034;-83
2021/05/23 12:05:38;;;;;;;4.35;1.40;;;16.30;56.90;;;;;;4977527;28;20377;-81
2021/05/23 12:08:15;;;;;;;4.88;1.25;;;16.40;52.10;;;;;;4977647;28;20081;-86
2021/05/23 12:10:41;;;;;;;6.65;1.48;;;16.70;56.10;;;;;;4979073;28;20090;-84
2021/05/23 12:13:07;;;;;;;5.82;1.40;;;17.00;50.50;;;;;;4973996;28;20081;-85
2021/05/23 12:15:32;;;;;;;9.70;2.25;;;17.30;54.70;;;;;;4970217;28;20467;-83
2021/05/23 12:18:01;;;;;;;5.47;2.03;;;17.40;54.30;;;;;;4967976;28;20375;-84
2021/05/23 12:20:27;;;;;;;6.22;1.33;;;17.20;49.70;;;;;;4979277;28;20030;-83
2021/05/23 12:22:53;;;;;;;4.88;1.90;;;16.80;52.90;;;;;;4979431;28;20027;-84
2021/05/23 12:25:21;;;;;;;9.55;1.88;;;16.60;49.30;;;;;;4981293;28;20022;-84
2021/05/23 12:27:52;;;;;;;9.15;1.98;;;16.80;50.00;;;;;;4985709;28;20105;-82
2021/05/23 12:30:28;;;;;;;6.82;1.85;;;17.10;50.40;;;;;;4981104;28;20034;-85
2021/05/23 12:33:02;;;;;;;6.35;1.90;;;17.20;49.30;;;;;;4979469;28;20101;-83
2021/05/23 12:35:33;;;;;;;6.38;1.70;;;17.00;49.40;;;;;;4979036;28;20117;-86
2021/05/23 12:38:01;;;;;;;9.32;2.13;;;16.80;51.70;;;;;;4998934;28;20021;-85